createdAt,value
2019-02-21T00:01:15.700Z,74.17
2019-02-21T00:03:45.035Z,73.97
2019-02-21T00:06:13.884Z,74.86
2019-02-21T00:08:43.382Z,74.50
2019-02-21T00:11:13.397Z,75.39
2019-02-21T00:13:43.212Z,75.55
2019-02-21T00:16:12.808Z,75.64
2019-02-21T00:18:43.304Z,75.97
2019-02-21T00:21:12.732Z,76.39
2019-02-21T00:23:41.512Z,75.97
2019-02-21T00:26:10.568Z,76.32
2019-02-21T00:28:39.373Z,76.41
2019-02-21T00:31:08.179Z,76.45
2019-02-21T00:33:36.989Z,75.87
2019-02-21T00:36:06.379Z,76.87
2019-02-21T00:38:35.183Z,76.09
2019-02-21T00:41:04.993Z,77.14
2019-02-21T00:43:33.808Z,76.87
2019-02-21T00:46:03.515Z,76.67
2019-02-21T00:48:34.044Z,76.63
2019-02-21T00:51:03.536Z,76.22
2019-02-21T00:53:32.958Z,76.30
2019-02-21T00:56:01.736Z,76.91
2019-02-21T00:58:32.802Z,77.43
2019-02-21T01:01:06.530Z,77.37
2019-02-21T01:03:35.910Z,77.79
2019-02-21T01:06:04.722Z,78.31
2019-02-21T01:08:34.091Z,78.01
2019-02-21T01:11:03.452Z,78.66
2019-02-21T01:13:33.446Z,78.38
2019-02-21T01:16:02.270Z,77.95
2019-02-21T01:18:31.069Z,78.62
2019-02-21T01:20:59.876Z,78.21
2019-02-21T01:23:29.247Z,79.28
2019-02-21T01:25:58.058Z,78.55
2019-02-21T01:28:27.559Z,78.92
2019-02-21T01:30:57.413Z,79.12
2019-02-21T01:33:25.779Z,78.34
2019-02-21T01:35:55.088Z,78.60
2019-02-21T01:38:23.875Z,78.37
2019-02-21T01:40:53.599Z,79.05
2019-02-21T01:43:23.985Z,79.44
2019-02-21T01:45:52.923Z,79.00
2019-02-21T01:48:22.266Z,80.08
2019-02-21T01:50:51.052Z,79.91
2019-02-21T01:53:20.440Z,80.00
2019-02-21T01:55:49.230Z,80.00
2019-02-21T01:58:18.583Z,80.84
2019-02-21T02:00:47.378Z,80.57
2019-02-21T02:03:17.402Z,81.26
2019-02-21T02:05:46.475Z,81.33
2019-02-21T02:08:15.860Z,81.73
2019-02-21T02:10:44.630Z,81.27
2019-02-21T02:13:24.159Z,81.07
2019-02-21T02:15:42.359Z,80.50
2019-02-21T02:18:12.468Z,80.72
2019-02-21T02:20:42.074Z,81.32
2019-02-21T02:23:11.508Z,80.77
2019-02-21T02:25:41.226Z,81.18
2019-02-21T02:28:10.733Z,81.73
2019-02-21T02:30:40.271Z,81.98
2019-02-21T02:33:09.031Z,81.73
2019-02-21T02:35:37.905Z,82.21
2019-02-21T02:38:07.343Z,82.69
2019-02-21T02:40:36.656Z,82.41
2019-02-21T02:43:05.441Z,82.12
2019-02-21T02:45:34.261Z,83.67
2019-02-21T02:48:03.078Z,83.62
2019-02-21T02:50:32.097Z,83.56
2019-02-21T02:53:01.759Z,82.50
2019-02-21T02:55:30.550Z,82.45
2019-02-21T02:58:00.406Z,82.64
2019-02-21T03:00:29.203Z,82.69
2019-02-21T03:02:59.568Z,82.25
2019-02-21T03:05:28.479Z,82.46
2019-02-21T03:07:57.307Z,82.29
2019-02-21T03:10:26.818Z,83.10
2019-02-21T03:12:55.595Z,82.36
2019-02-21T03:15:24.518Z,82.82
2019-02-21T03:17:53.331Z,82.01
2019-02-21T03:20:23.891Z,82.68
2019-02-21T03:22:52.657Z,82.85
2019-02-21T03:25:21.449Z,83.27
2019-02-21T03:27:50.253Z,83.48
2019-02-21T03:30:20.609Z,83.09
2019-02-21T03:32:49.525Z,82.54
2019-02-21T03:35:18.318Z,83.57
2019-02-21T03:37:48.428Z,83.03
2019-02-21T03:40:17.250Z,83.41
2019-02-21T03:42:46.670Z,83.41
2019-02-21T03:45:15.912Z,82.93
2019-02-21T03:47:44.975Z,83.95
2019-02-21T03:50:14.436Z,83.64
2019-02-21T03:52:43.980Z,83.68
2019-02-21T03:55:13.727Z,83.73
2019-02-21T03:57:43.154Z,83.89
2019-02-21T04:00:11.982Z,84.48
2019-02-21T04:02:41.382Z,83.74
2019-02-21T04:05:10.388Z,83.70
2019-02-21T04:07:40.146Z,84.55
2019-02-21T04:10:10.168Z,84.38
2019-02-21T04:12:39.482Z,83.63
2019-02-21T04:15:08.344Z,83.81
2019-02-21T04:17:38.085Z,83.86
2019-02-21T04:20:06.947Z,84.06
2019-02-21T04:22:35.733Z,83.73
2019-02-21T04:25:04.647Z,84.88
2019-02-21T04:27:33.479Z,85.19
2019-02-21T04:30:03.010Z,84.93
2019-02-21T04:32:32.571Z,85.31
2019-02-21T04:35:01.423Z,84.84
2019-02-21T04:37:30.517Z,84.60
2019-02-21T04:39:59.304Z,84.68
2019-02-21T04:42:29.041Z,84.27
2019-02-21T04:44:57.808Z,84.72
2019-02-21T04:47:27.631Z,84.37
2019-02-21T04:49:57.693Z,84.74
2019-02-21T04:52:26.467Z,85.37
2019-02-21T04:54:55.263Z,85.11
2019-02-21T04:57:24.088Z,84.87
2019-02-21T04:59:52.987Z,85.47
2019-02-21T05:02:29.277Z,85.05
2019-02-21T05:04:50.863Z,85.12
2019-02-21T05:07:20.494Z,84.67
2019-02-21T05:09:57.300Z,84.81
2019-02-21T05:12:20.179Z,84.74
2019-02-21T05:14:48.887Z,84.69
2019-02-21T05:17:20.417Z,84.77
2019-02-21T05:19:50.405Z,84.80
2019-02-21T05:22:20.080Z,85.12
2019-02-21T05:24:49.035Z,84.44
2019-02-21T05:27:24.239Z,84.39
2019-02-21T05:29:53.063Z,85.09
2019-02-21T05:32:27.186Z,85.48
2019-02-21T05:35:06.547Z,85.83
2019-02-21T05:37:41.227Z,86.33
2019-02-21T05:40:14.238Z,85.68
2019-02-21T05:42:55.432Z,85.94
2019-02-21T05:45:30.651Z,85.94
2019-02-21T05:48:09.306Z,85.62
2019-02-21T05:50:44.178Z,85.42
2019-02-21T05:53:17.126Z,87.05
2019-02-21T05:55:51.586Z,86.47
2019-02-21T05:58:26.174Z,87.60
2019-02-21T06:01:01.005Z,87.09
2019-02-21T06:03:36.994Z,87.36
2019-02-21T06:06:17.297Z,87.66
2019-02-21T06:08:49.759Z,87.66
2019-02-21T06:11:25.443Z,87.11
2019-02-21T06:14:00.886Z,87.33
2019-02-21T06:16:35.077Z,86.92
2019-02-21T06:19:27.516Z,87.42
2019-02-21T06:22:10.032Z,86.68
2019-02-21T06:24:51.523Z,87.31
2019-02-21T06:27:25.233Z,88.43
2019-02-21T06:29:58.429Z,88.04
2019-02-21T06:32:28.249Z,87.59
2019-02-21T06:35:02.795Z,87.79
2019-02-21T06:37:30.679Z,87.71
2019-02-21T06:40:00.211Z,87.79
2019-02-21T06:42:29.293Z,87.53
2019-02-21T06:44:59.902Z,87.85
2019-02-21T06:47:29.032Z,87.46
2019-02-21T06:49:58.780Z,87.03
2019-02-21T06:52:28.027Z,87.41
2019-02-21T06:54:56.897Z,86.99
2019-02-21T06:57:27.365Z,88.11
2019-02-21T06:59:56.172Z,87.63
2019-02-21T07:02:27.988Z,88.37
2019-02-21T07:04:56.604Z,88.07
2019-02-21T07:07:23.355Z,87.98
2019-02-21T07:09:52.736Z,87.59
2019-02-21T07:12:21.542Z,87.43
2019-02-21T07:14:50.848Z,87.04
2019-02-21T07:17:20.650Z,86.85
2019-02-21T07:19:50.619Z,86.25
2019-02-21T07:22:22.369Z,86.87
2019-02-21T07:24:50.310Z,86.77
2019-02-21T07:27:19.611Z,86.31
2019-02-21T07:29:49.205Z,86.37
2019-02-21T07:32:18.018Z,86.04
2019-02-21T07:34:47.809Z,86.56
2019-02-21T07:37:18.954Z,86.23
2019-02-21T07:39:47.929Z,85.87
2019-02-21T07:42:17.374Z,86.69
2019-02-21T07:44:46.167Z,86.18
2019-02-21T07:47:15.819Z,85.78
2019-02-21T07:49:45.885Z,86.32
2019-02-21T07:52:14.715Z,86.29
2019-02-21T07:54:46.538Z,85.85
2019-02-21T07:57:16.371Z,86.27
2019-02-21T07:59:45.155Z,85.38
2019-02-21T08:02:13.946Z,85.97
2019-02-21T08:04:43.350Z,85.30
2019-02-21T08:07:12.145Z,85.45
2019-02-21T08:09:41.851Z,85.87
2019-02-21T08:12:10.357Z,84.65
2019-02-21T08:14:39.760Z,84.30
2019-02-21T08:17:09.988Z,84.16
2019-02-21T08:19:38.810Z,84.68
2019-02-21T08:22:07.656Z,84.15
2019-02-21T08:24:37.455Z,83.98
2019-02-21T08:27:06.244Z,84.04
2019-02-21T08:29:35.050Z,83.46
2019-02-21T08:32:04.104Z,83.93
2019-02-21T08:34:37.164Z,83.76
2019-02-21T08:37:08.545Z,83.42
2019-02-21T08:39:37.958Z,83.52
2019-02-21T08:42:07.896Z,83.42
2019-02-21T08:44:38.134Z,83.24
2019-02-21T08:47:06.967Z,82.96
2019-02-21T08:49:36.040Z,82.90
2019-02-21T08:52:04.813Z,82.73
2019-02-21T08:54:34.320Z,82.73
2019-02-21T08:57:04.002Z,82.92
2019-02-21T08:59:32.789Z,82.98
2019-02-21T09:02:01.614Z,82.94
2019-02-21T09:04:30.425Z,82.70
2019-02-21T09:06:59.266Z,82.79
2019-02-21T09:09:28.114Z,82.75
2019-02-21T09:11:56.939Z,82.71
2019-02-21T09:14:25.741Z,82.81
2019-02-21T09:16:54.807Z,82.37
2019-02-21T09:19:23.591Z,81.88
2019-02-21T09:21:53.566Z,81.09
2019-02-21T09:24:37.486Z,80.37
2019-02-21T09:26:50.112Z,79.90
2019-02-21T09:29:18.931Z,79.64
2019-02-21T09:31:48.199Z,79.26
2019-02-21T09:34:21.080Z,79.56
2019-02-21T09:36:46.392Z,79.05
2019-02-21T09:39:16.077Z,79.35
2019-02-21T09:41:44.683Z,79.15
2019-02-21T09:44:13.470Z,78.89
2019-02-21T09:46:43.371Z,78.51
2019-02-21T09:49:12.263Z,78.17
2019-02-21T09:51:41.069Z,77.91
2019-02-21T09:54:10.634Z,78.16
2019-02-21T09:56:40.376Z,77.55
2019-02-21T09:59:11.025Z,76.78
2019-02-21T10:01:39.827Z,76.13
2019-02-21T10:04:09.447Z,75.48
2019-02-21T10:06:38.763Z,74.98
2019-02-21T10:09:08.812Z,74.14
2019-02-21T10:11:37.680Z,73.88
2019-02-21T10:14:06.473Z,74.17
2019-02-21T10:16:38.299Z,74.09
2019-02-21T10:19:07.093Z,73.61
2019-02-21T10:21:35.947Z,72.81
2019-02-21T10:24:06.727Z,72.21
2019-02-21T10:26:35.634Z,71.44
2019-02-21T10:29:07.041Z,71.36
2019-02-21T10:31:36.231Z,71.56
2019-02-21T10:34:07.253Z,72.17
2019-02-21T10:36:36.114Z,71.67
2019-02-21T10:39:05.416Z,71.22
2019-02-21T10:41:34.599Z,71.46
2019-02-21T10:44:04.636Z,71.71
2019-02-21T10:46:33.688Z,72.20
2019-02-21T10:49:02.522Z,71.62
2019-02-21T10:51:31.921Z,71.26
2019-02-21T10:54:00.752Z,70.98
2019-02-21T10:56:29.602Z,70.88
2019-02-21T10:58:58.379Z,69.27
2019-02-21T11:01:27.185Z,69.24
2019-02-21T11:03:55.988Z,67.80
2019-02-21T11:06:24.792Z,68.26
2019-02-21T11:08:53.614Z,68.43
2019-02-21T11:11:22.738Z,67.32
2019-02-21T11:13:52.213Z,67.09
2019-02-21T11:16:21.560Z,66.28
2019-02-21T11:18:53.005Z,66.77
2019-02-21T11:21:21.798Z,66.17
2019-02-21T11:23:51.242Z,64.97
2019-02-21T11:26:20.809Z,65.26
2019-02-21T11:28:50.897Z,65.34
2019-02-21T11:31:19.685Z,65.43
2019-02-21T11:33:49.229Z,65.86
2019-02-21T11:36:18.127Z,65.65
2019-02-21T11:38:47.259Z,66.16
2019-02-21T11:41:17.016Z,66.14
2019-02-21T11:43:45.835Z,65.98
2019-02-21T11:46:14.661Z,66.30
2019-02-21T11:48:44.254Z,66.16
2019-02-21T11:51:13.667Z,66.46
2019-02-21T11:53:43.355Z,66.72
2019-02-21T11:56:12.275Z,67.05
2019-02-21T11:58:41.783Z,67.26
2019-02-21T12:01:10.916Z,67.10
2019-02-21T12:03:39.741Z,67.61
2019-02-21T12:06:11.632Z,67.09
2019-02-21T12:08:40.491Z,66.33
2019-02-21T12:11:09.404Z,65.63
2019-02-21T12:13:38.224Z,65.32
2019-02-21T12:16:07.020Z,65.98
2019-02-21T12:18:37.928Z,65.66
2019-02-21T12:21:06.738Z,64.07
2019-02-21T12:23:35.577Z,63.55
2019-02-21T12:26:04.363Z,62.64
2019-02-21T12:28:33.205Z,62.71
2019-02-21T12:31:01.972Z,62.77
2019-02-21T12:33:30.848Z,62.82
2019-02-21T12:36:01.495Z,63.08
2019-02-21T12:38:30.283Z,62.76
2019-02-21T12:40:59.164Z,63.25
2019-02-21T12:43:29.015Z,63.19
2019-02-21T12:46:00.998Z,62.96
2019-02-21T12:48:29.835Z,63.62
2019-02-21T12:50:58.708Z,62.61
2019-02-21T12:53:28.307Z,63.51
2019-02-21T12:55:56.299Z,63.11
2019-02-21T12:58:27.742Z,63.18
2019-02-21T13:00:56.546Z,63.92
2019-02-21T13:03:26.003Z,63.82
2019-02-21T13:05:56.583Z,63.86
2019-02-21T13:08:26.206Z,64.19
2019-02-21T13:10:54.994Z,64.04
2019-02-21T13:13:25.974Z,63.84
2019-02-21T13:15:55.507Z,63.37
2019-02-21T13:18:24.330Z,63.52
2019-02-21T13:20:54.203Z,63.46
2019-02-21T13:23:24.025Z,63.33
2019-02-21T13:25:53.469Z,63.83
2019-02-21T13:28:22.905Z,63.52
2019-02-21T13:30:51.713Z,63.88
2019-02-21T13:33:21.226Z,63.29
2019-02-21T13:35:52.908Z,63.70
2019-02-21T13:38:19.496Z,63.42
2019-02-21T13:40:49.662Z,63.63
2019-02-21T13:43:18.450Z,63.68
2019-02-21T13:45:47.226Z,63.44
2019-02-21T13:48:17.791Z,63.42
2019-02-21T13:50:46.565Z,63.36
2019-02-21T13:53:16.735Z,63.52
2019-02-21T13:55:47.192Z,63.49
2019-02-21T13:58:16.666Z,63.34
2019-02-21T14:00:45.476Z,63.47
2019-02-21T14:03:15.135Z,63.66
2019-02-21T14:05:44.024Z,63.42
2019-02-21T14:08:13.635Z,63.67
2019-02-21T14:10:43.209Z,64.35
2019-02-21T14:13:12.592Z,63.93
2019-02-21T14:15:41.459Z,64.29
2019-02-21T14:18:10.802Z,64.15
2019-02-21T14:20:45.327Z,64.44
2019-02-21T14:23:09.795Z,64.80
2019-02-21T14:25:41.110Z,64.31
2019-02-21T14:28:08.395Z,64.45
2019-02-21T14:30:37.255Z,64.14
2019-02-21T14:33:06.150Z,64.43
2019-02-21T14:35:36.169Z,64.06
2019-02-21T14:38:05.205Z,64.45
2019-02-21T14:40:34.003Z,64.90
2019-02-21T14:43:02.789Z,65.08
2019-02-21T14:45:31.591Z,65.69
2019-02-21T14:48:02.221Z,65.68
2019-02-21T14:50:32.095Z,65.95
2019-02-21T14:53:00.893Z,65.33
2019-02-21T14:55:30.260Z,65.01
2019-02-21T14:57:58.556Z,65.93
2019-02-21T15:00:27.368Z,66.80
2019-02-21T15:02:57.822Z,67.20
2019-02-21T15:05:25.531Z,67.71
2019-02-21T15:07:54.372Z,67.43
2019-02-21T15:10:24.205Z,67.66
2019-02-21T15:12:53.021Z,67.85
2019-02-21T15:15:22.265Z,67.90
2019-02-21T15:17:51.286Z,67.80
2019-02-21T15:20:20.152Z,67.90
2019-02-21T15:22:49.635Z,67.91
2019-02-21T15:25:18.394Z,67.89
2019-02-21T15:27:47.211Z,67.92
2019-02-21T15:30:17.539Z,68.20
2019-02-21T15:32:48.064Z,68.52
2019-02-21T15:35:19.318Z,68.59
2019-02-21T15:37:47.868Z,68.55
2019-02-21T15:40:17.751Z,68.53
2019-02-21T15:42:47.182Z,68.65
2019-02-21T15:45:23.182Z,68.95
2019-02-21T15:47:46.875Z,69.17
2019-02-21T15:50:16.135Z,69.53
2019-02-21T15:52:45.013Z,69.74
2019-02-21T15:55:14.892Z,70.56
2019-02-21T15:57:44.319Z,70.45
2019-02-21T16:00:15.237Z,70.96
2019-02-21T16:02:44.071Z,71.46
2019-02-21T16:05:13.943Z,71.74
2019-02-21T16:07:43.967Z,72.56
2019-02-21T16:10:14.972Z,72.76
2019-02-21T16:12:44.299Z,73.28
2019-02-21T16:15:16.215Z,73.33
2019-02-21T16:17:42.652Z,74.03
2019-02-21T16:20:12.239Z,74.16
2019-02-21T16:22:41.229Z,74.56
2019-02-21T16:25:11.973Z,74.54
2019-02-21T16:27:40.931Z,74.83
2019-02-21T16:30:09.928Z,74.86
2019-02-21T16:32:38.742Z,75.60
2019-02-21T16:35:08.335Z,75.59
2019-02-21T16:37:40.395Z,75.95
2019-02-21T16:40:10.763Z,76.17
2019-02-21T16:42:39.618Z,76.54
2019-02-21T16:45:09.866Z,77.00
2019-02-21T16:47:38.715Z,77.34
2019-02-21T16:50:08.547Z,77.37
2019-02-21T16:52:37.475Z,77.63
2019-02-21T16:55:08.929Z,77.60
2019-02-21T16:57:39.332Z,78.35
2019-02-21T17:00:11.088Z,78.33
2019-02-21T17:02:39.873Z,78.29
2019-02-21T17:05:09.259Z,78.52
2019-02-21T17:07:38.127Z,78.71
2019-02-21T17:10:07.702Z,79.09
2019-02-21T17:12:37.218Z,79.24
2019-02-21T17:15:07.576Z,79.09
2019-02-21T17:17:36.973Z,79.46
2019-02-21T17:20:06.721Z,79.32
2019-02-21T17:22:35.586Z,79.36
2019-02-21T17:25:04.771Z,79.50
2019-02-21T17:27:34.332Z,79.80
2019-02-21T17:30:03.162Z,80.18
2019-02-21T17:32:33.830Z,80.22
2019-02-21T17:35:03.620Z,81.24
2019-02-21T17:37:32.505Z,81.08
2019-02-21T17:40:01.389Z,81.45
2019-02-21T17:42:30.215Z,81.63
2019-02-21T17:44:59.051Z,82.10
2019-02-21T17:47:27.868Z,81.98
2019-02-21T17:49:56.752Z,82.06
2019-02-21T17:52:25.548Z,82.48
2019-02-21T17:54:54.398Z,82.42
2019-02-21T17:57:23.196Z,82.54
2019-02-21T17:59:52.031Z,82.67
2019-02-21T18:02:21.711Z,82.62
2019-02-21T18:04:51.257Z,82.95
2019-02-21T18:07:20.719Z,83.12
2019-02-21T18:09:49.521Z,83.12
2019-02-21T18:12:18.351Z,82.93
2019-02-21T18:14:47.167Z,82.79
2019-02-21T18:17:16.677Z,83.32
2019-02-21T18:19:45.502Z,83.82
2019-02-21T18:22:14.998Z,83.37
2019-02-21T18:24:44.595Z,83.55
2019-02-21T18:27:13.458Z,83.99
2019-02-21T18:29:43.779Z,84.17
2019-02-21T18:32:17.437Z,84.19
2019-02-21T18:34:49.608Z,83.97
2019-02-21T18:37:19.116Z,84.04
2019-02-21T18:39:47.965Z,84.43
2019-02-21T18:42:18.047Z,84.47
2019-02-21T18:44:47.163Z,84.30
2019-02-21T18:47:18.982Z,84.48
2019-02-21T18:49:48.039Z,84.35
2019-02-21T18:52:17.242Z,83.89
2019-02-21T18:54:46.067Z,84.43
2019-02-21T18:57:15.885Z,84.76
2019-02-21T19:00:09.923Z,84.73
2019-02-21T19:02:38.799Z,84.86
2019-02-21T19:05:07.818Z,85.13
2019-02-21T19:07:37.475Z,85.15
2019-02-21T19:10:08.119Z,84.96
2019-02-21T19:12:38.230Z,85.09
2019-02-21T19:15:08.734Z,84.87
2019-02-21T19:17:37.606Z,85.16
2019-02-21T19:20:08.298Z,85.16
2019-02-21T19:22:37.422Z,85.39
2019-02-21T19:25:08.562Z,85.18
2019-02-21T19:27:37.714Z,85.49
2019-02-21T19:30:10.197Z,85.53
2019-02-21T19:32:39.355Z,85.66
2019-02-21T19:35:08.924Z,85.58
2019-02-21T19:37:37.678Z,85.55
2019-02-21T19:40:08.099Z,85.52
2019-02-21T19:42:36.912Z,85.37
2019-02-21T19:45:06.364Z,85.30
2019-02-21T19:47:35.933Z,85.24
2019-02-21T19:50:04.997Z,85.27
2019-02-21T19:52:33.894Z,85.50
2019-02-21T19:55:03.037Z,85.64
2019-02-21T19:57:32.959Z,85.39
2019-02-21T20:00:02.400Z,85.78
2019-02-21T20:02:31.795Z,85.77
2019-02-21T20:05:00.614Z,85.88
2019-02-21T20:07:30.371Z,86.25
2019-02-21T20:10:00.038Z,86.19
2019-02-21T20:12:28.908Z,86.33
2019-02-21T20:14:57.715Z,86.38
2019-02-21T20:17:26.631Z,85.93
2019-02-21T20:19:55.511Z,86.05
2019-02-21T20:22:24.323Z,85.97
2019-02-21T20:24:53.166Z,85.94
2019-02-21T20:27:22.081Z,85.98
2019-02-21T20:29:50.943Z,86.33
2019-02-21T20:32:19.759Z,86.18
2019-02-21T20:34:48.567Z,86.34
2019-02-21T20:37:17.409Z,86.37
2019-02-21T20:39:46.216Z,86.35
2019-02-21T20:42:15.313Z,86.56
2019-02-21T20:44:44.123Z,86.25
2019-02-21T20:47:12.975Z,86.33
2019-02-21T20:49:41.768Z,86.50
2019-02-21T20:52:10.572Z,86.49
2019-02-21T20:54:39.363Z,86.33
2019-02-21T20:57:08.234Z,86.29
2019-02-21T20:59:37.048Z,86.05
2019-02-21T21:02:05.842Z,86.28
2019-02-21T21:04:34.760Z,86.08
2019-02-21T21:07:03.614Z,86.36
2019-02-21T21:09:32.997Z,85.86
2019-02-21T21:12:01.847Z,86.10
2019-02-21T21:14:30.648Z,86.13
2019-02-21T21:16:59.470Z,85.81
2019-02-21T21:19:28.261Z,86.40
2019-02-21T21:21:57.159Z,85.92
2019-02-21T21:24:26.487Z,86.18
2019-02-21T21:26:56.253Z,86.13
2019-02-21T21:29:25.058Z,86.08
2019-02-21T21:31:55.010Z,86.06
2019-02-21T21:34:25.805Z,86.10
2019-02-21T21:36:54.666Z,86.07
2019-02-21T21:39:23.643Z,86.14
2019-02-21T21:41:52.433Z,86.08
2019-02-21T21:44:21.243Z,86.68
2019-02-21T21:46:50.084Z,86.29
2019-02-21T21:49:20.117Z,86.29
2019-02-21T21:51:48.881Z,86.15
2019-02-21T21:54:17.733Z,86.18
2019-02-21T21:56:46.564Z,86.37
2019-02-21T21:59:15.410Z,86.27
2019-02-21T22:01:47.555Z,86.17
2019-02-21T22:04:15.182Z,86.22
2019-02-21T22:06:44.049Z,86.04
2019-02-21T22:09:12.927Z,86.51
2019-02-21T22:11:41.847Z,86.13
2019-02-21T22:14:10.650Z,86.36
2019-02-21T22:16:39.448Z,85.99
2019-02-21T22:19:08.288Z,86.39
2019-02-21T22:21:37.124Z,86.46
2019-02-21T22:24:05.980Z,86.13
2019-02-21T22:26:35.595Z,86.52
2019-02-21T22:29:05.095Z,86.18
2019-02-21T22:31:33.987Z,86.52
2019-02-21T22:34:02.800Z,86.69
2019-02-21T22:36:31.701Z,86.76
2019-02-21T22:39:02.076Z,86.64
2019-02-21T22:41:29.348Z,86.60
2019-02-21T22:43:58.146Z,86.81
2019-02-21T22:46:27.223Z,86.90
2019-02-21T22:48:57.299Z,86.78
2019-02-21T22:51:26.108Z,86.85
2019-02-21T22:53:54.919Z,86.90
2019-02-21T22:56:26.358Z,86.69
2019-02-21T22:58:55.236Z,86.89
2019-02-21T23:01:29.319Z,87.17
2019-02-21T23:04:15.001Z,86.99
2019-02-21T23:07:00.744Z,87.19
2019-02-21T23:09:30.200Z,86.99
2019-02-21T23:11:59.036Z,87.16
2019-02-21T23:14:27.847Z,87.25
2019-02-21T23:16:56.644Z,87.10
2019-02-21T23:19:25.805Z,87.40
2019-02-21T23:21:55.320Z,87.22
2019-02-21T23:24:24.204Z,87.37
2019-02-21T23:26:53.007Z,87.68
2019-02-21T23:29:21.902Z,87.53
2019-02-21T23:31:50.732Z,87.80
2019-02-21T23:34:25.083Z,87.70
2019-02-21T23:36:53.990Z,87.60
2019-02-21T23:39:23.492Z,87.73
2019-02-21T23:41:52.365Z,87.56
2019-02-21T23:44:21.178Z,87.85
2019-02-21T23:46:54.118Z,87.78
2019-02-21T23:49:21.881Z,87.92
2019-02-21T23:51:52.019Z,87.48
2019-02-21T23:54:21.988Z,87.49
2019-02-21T23:56:50.830Z,88.00
2019-02-21T23:59:20.189Z,87.95
